EST,Max TemperatureF,Mean TemperatureF,Min TemperatureF,Max Dew PointF,MeanDew PointF,Min DewpointF,Max Humidity, Mean Humidity, Min Humidity, Max Sea Level PressureIn, Mean Sea Level PressureIn, Min Sea Level PressureIn, Max VisibilityMiles, Mean VisibilityMiles, Min VisibilityMiles, Max Wind SpeedMPH, Mean Wind SpeedMPH, Max Gust SpeedMPH,PrecipitationIn, CloudCover, Events, WindDirDegrees
2012-11-1,48,44,39,39,37,36,87,74,71,29.69,29.65,29.60,10,10,9,14,7,18,0.00,4,,266
2012-11-2,46,42,39,37,35,34,81,72,62,29.86,29.74,29.69,10,10,8,18,10,25,0.00,5,Rain,291
2012-11-3,44,42,39,34,32,30,81,68,61,30.03,29.94,29.86,10,10,10,22,14,32,0.00,8,,312
2012-11-4,44,40,37,32,30,28,75,68,61,30.05,30.03,30.01,10,10,10,17,10,23,0.00,7,,325
2012-11-5,42,38,33,30,28,23,75,68,57,30.19,30.09,30.02,10,10,10,14,8,20,0.00,7,,345
2012-11-6,39,34,30,27,24,21,75,64,52,30.23,30.15,30.05,10,10,9,8,4,16,0.00,3,,35
2012-11-7,39,36,33,34,28,19,100,74,56,30.04,29.92,29.85,10,8,1,18,9,24,1.64,3,Snow,9
2012-11-8,48,42,35,28,22,16,75,47,34,30.01,29.89,29.84,10,10,5,23,14,31,0.03,2,Snow,326
2012-11-9,53,43,33,34,29,18,81,60,44,30.24,30.14,30.01,10,10,10,18,10,24,0.00,0,,317
2012-11-10,57,47,37,37,35,32,81,62,44,30.41,30.33,30.24,10,10,7,7,2,,0.00,1,,243
2012-11-11,66,52,39,48,43,37,100,75,37,30.49,30.44,30.39,10,8,0,8,2,,0.00,1,Fog,149
2012-11-12,66,55,44,57,51,43,100,87,64,30.46,30.34,30.17,10,7,0,10,3,17,0.00,3,Fog,158
2012-11-13,62,48,35,61,37,30,100,80,57,30.47,30.34,30.14,10,8,2,23,10,34,1.47,4,Rain,331
2012-11-14,46,39,32,30,27,23,81,64,43,30.55,30.49,30.45,10,10,10,10,5,,0.00,1,,11
2012-11-15,46,39,32,30,27,23,75,64,49,30.45,30.38,30.30,10,10,10,12,4,18,0.00,1,,34
2012-11-16,48,42,35,30,28,25,75,61,46,30.45,30.35,30.30,10,10,10,9,4,,0.00,0,,354
2012-11-17,53,44,35,32,29,27,81,62,38,30.62,30.56,30.45,10,10,10,10,5,20,0.00,0,,19
2012-11-18,50,42,33,36,34,30,93,75,58,30.64,30.60,30.54,10,10,9,10,4,17,0.00,2,,50
2012-11-19,51,44,37,39,36,34,87,77,62,30.54,30.39,30.25,10,10,10,8,5,,0.00,2,,32
2012-11-20,50,44,37,37,35,32,93,72,54,30.24,30.17,30.12,10,10,9,8,2,,0.00,0,,25
2012-11-21,53,44,35,34,30,27,81,62,41,30.24,30.19,30.14,10,10,10,9,3,,0.00,0,,14
2012-11-22,55,46,37,34,30,23,75,57,36,30.28,30.22,30.15,10,10,10,6,3,,0.00,0,,9
2012-11-23,57,47,37,39,35,30,100,65,38,30.15,29.93,29.75,10,9,2,25,4,37,0.00,2,,224
2012-11-24,44,38,32,28,22,21,65,55,49,29.95,29.86,29.78,10,10,10,25,19,36,0.00,5,,300
2012-11-25,37,34,32,23,22,21,65,61,52,30.01,29.97,29.93,10,10,4,20,10,24,0.03,2,Snow,274
2012-11-26,46,37,28,28,25,21,80,62,46,30.25,30.14,29.99,10,10,10,14,5,17,0.00,0,,291
2012-11-27,37,35,33,34,33,27,100,92,65,30.25,30.22,30.18,10,5,0,9,4,16,5.02,7,Rain-Snow,21
2012-11-28,39,34,30,32,27,21,100,76,60,30.34,30.26,30.21,10,10,7,16,7,22,0.00,2,,302
2012-11-29,44,36,28,28,24,21,75,62,46,30.41,30.35,30.32,10,10,8,13,5,18,0.00,0,,246
2012-11-30,46,38,30,32,29,25,87,70,49,30.39,30.36,30.33,10,10,8,7,2,,0.00,1,,28